RPVA/TAC METAR and TAF weather

Enter ICAO airport designator
Station Type Date Time Source
RPVA METAR 2015/01/15 08:00 UTC NOAA

RPVA 150800Z 29004KT 9999 FEW018 BKN230 29/23 Q1008 RMK A2977


Station Type Date Time Source
RPVA Decoded METAR 2015/01/15 08:00 UTC NOAA

Tacloban, Philippines (RPVA) 11-15N 125-00E 3M
Jan 15, 2015 - 03:00 AM EST / 2015.01.15 0800 UTC
Wind: from the WNW (290 degrees) at 5 MPH (4 KT):0
Visibility: greater than 7 mile(s):0
Sky conditions: mostly cloudy
Temperature: 84 F (29 C)
Dew Point: 73 F (23 C)
Relative Humidity: 70%
Pressure (altimeter): 29.77 in. Hg (1008 hPa)
ob: RPVA 150800Z 29004KT 9999 FEW018 BKN230 29/23 Q1008 RMK A2977
cycle: 8

Station Type Date Time Source
RPVA TAF UTC NOAA

Error!


Example: see airport list